Station Historical Data
Daily Summary for January 27, 2018 Units:  Both    English   Metric
« Previous Day
Next Day »
Daily Weekly Monthly Yearly Custom
  High: Low: Average:
Temperature: TemperatureF °F /  -17.8 °C 36.4 °F /  2.4 °C 45.2 °F /  7.3 °C
Dew Point: DewpointF °F /  -17.8 °C 23.7 °F /  -4.6 °C 32.8 °F /  0.4 °C
Humidity: Humidity% 41% 64%
Wind Speed: WindSpeedMPHmph /  0km/h - 6.6mph /  10.6km/h
Wind Gust: WindSpeedGustMPHmph /  0km/h - -
Wind- - SW
Pressure: PressureIn in /  0 hPa 30.06 in /  1017.8 hPa -
Precipitation: 0.00 in /  0 mm    
Historical Graphs
 
 
Tabular Data for January 27, 2018
Time Temperature Dew Point Pressure Wind Wind Speed Wind Gust Humidity Rainfall Rate (Hourly)
TemperatureF °F /  -17.8 °C DewpointF °F /  -17.8 °C PressureInin /  0hPa Calm     Humidity% HourlyPrecipInin /  0mm
00:00 46.7 °F /  8.2 °C 27.5 °F /  -2.5 °C 30.24in /  1023.9hPa SSW 7.0mph /  11.3km/h 18.0mph /  29km/h 47% 0.00in /  0mm
00:05 46.9 °F /  8.3 °C 27.7 °F /  -2.4 °C 30.25in /  1024.3hPa SSW 5.0mph /  8km/h 14.0mph /  22.5km/h 47% 0.00in /  0mm
00:09 46.7 °F /  8.2 °C 27.5 °F /  -2.5 °C 30.24in /  1023.9hPa SSW 6.0mph /  9.7km/h 14.0mph /  22.5km/h 47% 0.00in /  0mm
00:14 46.7 °F /  8.2 °C 27.5 °F /  -2.5 °C 30.24in /  1023.9hPa SW 6.0mph /  9.7km/h 12.0mph /  19.3km/h 47% 0.00in /  0mm
00:19 46.4 °F /  8 °C 27.2 °F /  -2.7 °C 30.24in /  1023.9hPa SSW 6.0mph /  9.7km/h 13.0mph /  20.9km/h 47% 0.00in /  0mm
00:25 46.1 °F /  7.8 °C 27.5 °F /  -2.5 °C 30.24in /  1023.9hPa SW 6.0mph /  9.7km/h 13.0mph /  20.9km/h 48% 0.00in /  0mm
00:29 45.9 °F /  7.7 °C 27.3 °F /  -2.6 °C 30.24in /  1023.9hPa WSW 4.0mph /  6.4km/h 9.0mph /  14.5km/h 48% 0.00in /  0mm
00:34 45.6 °F /  7.6 °C 27.0 °F /  -2.8 °C 30.23in /  1023.6hPa WSW 5.0mph /  8km/h 10.0mph /  16.1km/h 48% 0.00in /  0mm
00:39 45.4 °F /  7.4 °C 27.3 °F /  -2.6 °C 30.23in /  1023.6hPa SW 5.0mph /  8km/h 10.0mph /  16.1km/h 49% 0.00in /  0mm
00:44 45.1 °F /  7.3 °C 27.6 °F /  -2.4 °C 30.23in /  1023.6hPa SW 4.0mph /  6.4km/h 10.0mph /  16.1km/h 50% 0.00in /  0mm
00:49 45.0 °F /  7.2 °C 27.5 °F /  -2.5 °C 30.22in /  1023.2hPa SSW 5.0mph /  8km/h 10.0mph /  16.1km/h 50% 0.00in /  0mm
00:54 45.0 °F /  7.2 °C 27.0 °F /  -2.8 °C 30.22in /  1023.2hPa SSW 5.0mph /  8km/h 11.0mph /  17.7km/h 49% 0.00in /  0mm
01:00 44.7 °F /  7.1 °C 27.2 °F /  -2.7 °C 30.22in /  1023.2hPa SW 1.0mph /  1.6km/h 9.0mph /  14.5km/h 50% 0.00in /  0mm
01:05 44.4 °F /  6.9 °C 26.9 °F /  -2.8 °C 30.21in /  1022.9hPa SW 2.0mph /  3.2km/h 7.0mph /  11.3km/h 50% 0.00in /  0mm
01:10 44.5 °F /  6.9 °C 27.0 °F /  -2.8 °C 30.21in /  1022.9hPa South 9.0mph /  14.5km/h 9.0mph /  14.5km/h 50% 0.00in /  0mm
01:14 44.8 °F /  7.1 °C 26.8 °F /  -2.9 °C 30.21in /  1022.9hPa SSW 4.0mph /  6.4km/h 10.0mph /  16.1km/h 49% 0.00in /  0mm
01:19 45.3 °F /  7.4 °C 26.7 °F /  -2.9 °C 30.21in /  1022.9hPa SSW 5.0mph /  8km/h 13.0mph /  20.9km/h 48% 0.00in /  0mm
01:24 45.6 °F /  7.6 °C 26.5 °F /  -3.1 °C 30.20in /  1022.6hPa SSW 5.0mph /  8km/h 13.0mph /  20.9km/h 47% 0.00in /  0mm
01:30 46.1 °F /  7.8 °C 26.4 °F /  -3.1 °C 30.20in /  1022.6hPa SSW 5.0mph /  8km/h 12.0mph /  19.3km/h 46% 0.00in /  0mm
01:34 46.5 °F /  8.1 °C 26.3 °F /  -3.2 °C 30.20in /  1022.6hPa WSW 6.0mph /  9.7km/h 12.0mph /  19.3km/h 45% 0.00in /  0mm
01:39 47.1 °F /  8.4 °C 26.3 °F /  -3.2 °C 30.20in /  1022.6hPa WSW 7.0mph /  11.3km/h 14.0mph /  22.5km/h 44% 0.00in /  0mm
01:44 47.5 °F /  8.6 °C 26.1 °F /  -3.3 °C 30.20in /  1022.6hPa SSW 5.0mph /  8km/h 12.0mph /  19.3km/h 43% 0.00in /  0mm
01:49 47.5 °F /  8.6 °C 26.1 °F /  -3.3 °C 30.20in /  1022.6hPa SSW 7.0mph /  11.3km/h 15.0mph /  24.1km/h 43% 0.00in /  0mm
01:54 47.7 °F /  8.7 °C 26.3 °F /  -3.2 °C 30.20in /  1022.6hPa SSW 6.0mph /  9.7km/h 15.0mph /  24.1km/h 43% 0.00in /  0mm
01:59 47.8 °F /  8.8 °C 25.8 °F /  -3.4 °C 30.20in /  1022.6hPa SSW 7.0mph /  11.3km/h 18.0mph /  29km/h 42% 0.00in /  0mm
02:04 48.0 °F /  8.9 °C 26.0 °F /  -3.3 °C 30.20in /  1022.6hPa SSW 7.0mph /  11.3km/h 18.0mph /  29km/h 42% 0.00in /  0mm
02:10 48.1 °F /  8.9 °C 26.1 °F /  -3.3 °C 30.20in /  1022.6hPa South 6.0mph /  9.7km/h 12.0mph /  19.3km/h 42% 0.00in /  0mm
02:15 48.1 °F /  8.9 °C 26.1 °F /  -3.3 °C 30.20in /  1022.6hPa SSW 4.0mph /  6.4km/h 17.0mph /  27.4km/h 42% 0.00in /  0mm
02:20 47.8 °F /  8.8 °C 25.8 °F /  -3.4 °C 30.20in /  1022.6hPa SSW 4.0mph /  6.4km/h 13.0mph /  20.9km/h 42% 0.00in /  0mm
02:24 47.7 °F /  8.7 °C 25.7 °F /  -3.5 °C 30.20in /  1022.6hPa SSW 5.0mph /  8km/h 15.0mph /  24.1km/h 42% 0.00in /  0mm
02:29 47.6 °F /  8.7 °C 25.6 °F /  -3.6 °C 30.20in /  1022.6hPa SSW 6.0mph /  9.7km/h 15.0mph /  24.1km/h 42% 0.00in /  0mm
02:34 47.4 °F /  8.6 °C 26.0 °F /  -3.3 °C 30.20in /  1022.6hPa SSW 6.0mph /  9.7km/h 16.0mph /  25.7km/h 43% 0.00in /  0mm
02:39 47.3 °F /  8.5 °C 25.9 °F /  -3.4 °C 30.20in /  1022.6hPa SSW 6.0mph /  9.7km/h 16.0mph /  25.7km/h 43% 0.00in /  0mm
02:44 47.2 °F /  8.4 °C 25.8 °F /  -3.4 °C 30.20in /  1022.6hPa South 7.0mph /  11.3km/h 12.0mph /  19.3km/h 43% 0.00in /  0mm
02:49 47.1 °F /  8.4 °C 25.7 °F /  -3.5 °C 30.20in /  1022.6hPa SSW 7.0mph /  11.3km/h 11.0mph /  17.7km/h 43% 0.00in /  0mm
02:54 47.0 °F /  8.3 °C 26.2 °F /  -3.2 °C 30.20in /  1022.6hPa South 5.0mph /  8km/h 8.0mph /  12.9km/h 44% 0.00in /  0mm
02:59 47.0 °F /  8.3 °C 25.6 °F /  -3.6 °C 30.20in /  1022.6hPa SSW 5.0mph /  8km/h 12.0mph /  19.3km/h 43% 0.00in /  0mm
03:04 47.0 °F /  8.3 °C 26.2 °F /  -3.2 °C 30.19in /  1022.2hPa SSW 5.0mph /  8km/h 12.0mph /  19.3km/h 44% 0.00in /  0mm
03:09 47.0 °F /  8.3 °C 26.2 °F /  -3.2 °C 30.19in /  1022.2hPa SSW 5.0mph /  8km/h 13.0mph /  20.9km/h 44% 0.00in /  0mm
03:14 46.9 °F /  8.3 °C 25.5 °F /  -3.6 °C 30.18in /  1021.9hPa SSW 3.0mph /  4.8km/h 10.0mph /  16.1km/h 43% 0.00in /  0mm
03:20 46.7 °F /  8.2 °C 25.9 °F /  -3.4 °C 30.18in /  1021.9hPa South 6.0mph /  9.7km/h 10.0mph /  16.1km/h 44% 0.00in /  0mm
03:25 46.5 °F /  8.1 °C 25.7 °F /  -3.5 °C 30.18in /  1021.9hPa SSW 5.0mph /  8km/h 12.0mph /  19.3km/h 44% 0.00in /  0mm
03:29 46.5 °F /  8.1 °C 25.7 °F /  -3.5 °C 30.18in /  1021.9hPa SSW 5.0mph /  8km/h 13.0mph /  20.9km/h 44% 0.00in /  0mm
03:34 46.5 °F /  8.1 °C 25.7 °F /  -3.5 °C 30.18in /  1021.9hPa SSW 5.0mph /  8km/h 13.0mph /  20.9km/h 44% 0.00in /  0mm
03:39 46.5 °F /  8.1 °C 25.7 °F /  -3.5 °C 30.18in /  1021.9hPa SSW 5.0mph /  8km/h 10.0mph /  16.1km/h 44% 0.00in /  0mm
03:44 46.5 °F /  8.1 °C 25.7 °F /  -3.5 °C 30.18in /  1021.9hPa SSW 3.0mph /  4.8km/h 9.0mph /  14.5km/h 44% 0.00in /  0mm
03:50 46.5 °F /  8.1 °C 25.7 °F /  -3.5 °C 30.18in /  1021.9hPa SSW 3.0mph /  4.8km/h 11.0mph /  17.7km/h 44% 0.00in /  0mm
03:55 46.2 °F /  7.9 °C 25.5 °F /  -3.6 °C 30.18in /  1021.9hPa South 6.0mph /  9.7km/h 10.0mph /  16.1km/h 44% 0.00in /  0mm
04:00 46.4 °F /  8 °C 25.6 °F /  -3.6 °C 30.18in /  1021.9hPa SSW 5.0mph /  8km/h 11.0mph /  17.7km/h 44% 0.00in /  0mm
04:09 46.2 °F /  7.9 °C 25.5 °F /  -3.6 °C 30.18in /  1021.9hPa SSW 5.0mph /  8km/h 11.0mph /  17.7km/h 44% 0.00in /  0mm
04:14 46.0 °F /  7.8 °C 25.3 °F /  -3.7 °C 30.17in /  1021.6hPa SSW 5.0mph /  8km/h 10.0mph /  16.1km/h 44% 0.00in /  0mm
04:20 46.1 °F /  7.8 °C 25.4 °F /  -3.7 °C 30.17in /  1021.6hPa SSW 6.0mph /  9.7km/h 15.0mph /  24.1km/h 44% 0.00in /  0mm
04:25 46.1 °F /  7.8 °C 25.4 °F /  -3.7 °C 30.18in /  1021.9hPa SSW 5.0mph /  8km/h 14.0mph /  22.5km/h 44% 0.00in /  0mm
04:30 46.1 °F /  7.8 °C 25.4 °F /  -3.7 °C 30.17in /  1021.6hPa SSW 5.0mph /  8km/h 14.0mph /  22.5km/h 44% 0.00in /  0mm
04:39 45.9 °F /  7.7 °C 25.2 °F /  -3.8 °C 30.17in /  1021.6hPa SSW 5.0mph /  8km/h 13.0mph /  20.9km/h 44% 0.00in /  0mm
04:44 45.7 °F /  7.6 °C 25.0 °F /  -3.9 °C 30.17in /  1021.6hPa SSW 5.0mph /  8km/h 13.0mph /  20.9km/h 44% 0.00in /  0mm
04:49 45.9 °F /  7.7 °C 25.2 °F /  -3.8 °C 30.17in /  1021.6hPa SW 10.0mph /  16.1km/h 13.0mph /  20.9km/h 44% 0.00in /  0mm
04:54 45.9 °F /  7.7 °C 24.6 °F /  -4.1 °C 30.17in /  1021.6hPa South 8.0mph /  12.9km/h 15.0mph /  24.1km/h 43% 0.00in /  0mm
04:59 46.1 °F /  7.8 °C 24.8 °F /  -4 °C 30.17in /  1021.6hPa SSW 7.0mph /  11.3km/h 14.0mph /  22.5km/h 43% 0.00in /  0mm
05:04 46.2 °F /  7.9 °C 24.9 °F /  -3.9 °C 30.17in /  1021.6hPa South 5.0mph /  8km/h 13.0mph /  20.9km/h 43% 0.00in /  0mm
05:09 46.1 °F /  7.8 °C 24.8 °F /  -4 °C 30.17in /  1021.6hPa SSW 5.0mph /  8km/h 10.0mph /  16.1km/h 43% 0.00in /  0mm
05:14 46.1 °F /  7.8 °C 24.8 °F /  -4 °C 30.17in /  1021.6hPa SSW 5.0mph /  8km/h 15.0mph /  24.1km/h 43% 0.00in /  0mm
05:19 45.9 °F /  7.7 °C 24.6 °F /  -4.1 °C 30.17in /  1021.6hPa SSW 5.0mph /  8km/h 15.0mph /  24.1km/h 43% 0.00in /  0mm
05:24 45.9 °F /  7.7 °C 24.6 °F /  -4.1 °C 30.17in /  1021.6hPa SSW 5.0mph /  8km/h 16.0mph /  25.7km/h 43% 0.00in /  0mm
05:29 45.8 °F /  7.7 °C 24.5 °F /  -4.2 °C 30.16in /  1021.2hPa SSW 5.0mph /  8km/h 16.0mph /  25.7km/h 43% 0.00in /  0mm
05:34 45.9 °F /  7.7 °C 24.6 °F /  -4.1 °C 30.16in /  1021.2hPa SSW 5.0mph /  8km/h 14.0mph /  22.5km/h 43% 0.00in /  0mm
05:40 45.9 °F /  7.7 °C 24.1 °F /  -4.4 °C 30.16in /  1021.2hPa SSW 6.0mph /  9.7km/h 14.0mph /  22.5km/h 42% 0.00in /  0mm
05:44 45.9 °F /  7.7 °C 24.1 °F /  -4.4 °C 30.16in /  1021.2hPa SSW 6.0mph /  9.7km/h 14.0mph /  22.5km/h 42% 0.00in /  0mm
05:49 45.9 °F /  7.7 °C 24.6 °F /  -4.1 °C 30.16in /  1021.2hPa SSW 5.0mph /  8km/h 9.0mph /  14.5km/h 43% 0.00in /  0mm
05:54 45.9 °F /  7.7 °C 24.1 °F /  -4.4 °C 30.16in /  1021.2hPa SSW 4.0mph /  6.4km/h 11.0mph /  17.7km/h 42% 0.00in /  0mm
05:59 45.9 °F /  7.7 °C 24.1 °F /  -4.4 °C 30.16in /  1021.2hPa South 9.0mph /  14.5km/h 14.0mph /  22.5km/h 42% 0.00in /  0mm
06:04 46.0 °F /  7.8 °C 24.2 °F /  -4.3 °C 30.16in /  1021.2hPa SW 5.0mph /  8km/h 13.0mph /  20.9km/h 42% 0.00in /  0mm
06:09 45.9 °F /  7.7 °C 24.1 °F /  -4.4 °C 30.16in /  1021.2hPa SSW 6.0mph /  9.7km/h 12.0mph /  19.3km/h 42% 0.00in /  0mm
06:14 45.8 °F /  7.7 °C 24.0 °F /  -4.4 °C 30.17in /  1021.6hPa SSW 3.0mph /  4.8km/h 11.0mph /  17.7km/h 42% 0.00in /  0mm
06:19 45.9 °F /  7.7 °C 24.1 °F /  -4.4 °C 30.16in /  1021.2hPa SSW 5.0mph /  8km/h 11.0mph /  17.7km/h 42% 0.00in /  0mm
06:24 45.6 °F /  7.6 °C 23.8 °F /  -4.6 °C 30.16in /  1021.2hPa SSW 5.0mph /  8km/h 13.0mph /  20.9km/h 42% 0.00in /  0mm
06:29 45.9 °F /  7.7 °C 24.1 °F /  -4.4 °C 30.16in /  1021.2hPa SSW 5.0mph /  8km/h 14.0mph /  22.5km/h 42% 0.00in /  0mm
06:34 46.1 °F /  7.8 °C 23.7 °F /  -4.6 °C 30.16in /  1021.2hPa SSW 6.0mph /  9.7km/h 14.0mph /  22.5km/h 41% 0.00in /  0mm
06:39 46.3 °F /  7.9 °C 23.9 °F /  -4.5 °C 30.16in /  1021.2hPa SSW 6.0mph /  9.7km/h 13.0mph /  20.9km/h 41% 0.00in /  0mm
06:44 46.5 °F /  8.1 °C 24.0 °F /  -4.4 °C 30.16in /  1021.2hPa SSW 7.0mph /  11.3km/h 18.0mph /  29km/h 41% 0.00in /  0mm
06:49 46.7 °F /  8.2 °C 24.2 °F /  -4.3 °C 30.16in /  1021.2hPa SSW 6.0mph /  9.7km/h 16.0mph /  25.7km/h 41% 0.00in /  0mm
06:54 46.7 °F /  8.2 °C 24.2 °F /  -4.3 °C 30.16in /  1021.2hPa WSW 4.0mph /  6.4km/h 13.0mph /  20.9km/h 41% 0.00in /  0mm
06:59 46.7 °F /  8.2 °C 24.2 °F /  -4.3 °C 30.16in /  1021.2hPa SSW 10.0mph /  16.1km/h 15.0mph /  24.1km/h 41% 0.00in /  0mm
07:04 46.8 °F /  8.2 °C 24.9 °F /  -3.9 °C 30.16in /  1021.2hPa SW 10.0mph /  16.1km/h 12.0mph /  19.3km/h 42% 0.00in /  0mm
07:09 46.7 °F /  8.2 °C 24.2 °F /  -4.3 °C 30.16in /  1021.2hPa South 4.0mph /  6.4km/h 14.0mph /  22.5km/h 41% 0.00in /  0mm
07:14 46.6 °F /  8.1 °C 24.7 °F /  -4.1 °C 30.16in /  1021.2hPa SSW 4.0mph /  6.4km/h 15.0mph /  24.1km/h 42% 0.00in /  0mm
07:19 46.4 °F /  8 °C 24.5 °F /  -4.2 °C 30.16in /  1021.2hPa SSW 7.0mph /  11.3km/h 14.0mph /  22.5km/h 42% 0.00in /  0mm
07:24 46.4 °F /  8 °C 24.5 °F /  -4.2 °C 30.16in /  1021.2hPa SSW 6.0mph /  9.7km/h 14.0mph /  22.5km/h 42% 0.00in /  0mm
07:29 46.3 °F /  7.9 °C 25.0 °F /  -3.9 °C 30.16in /  1021.2hPa SSW 7.0mph /  11.3km/h 15.0mph /  24.1km/h 43% 0.00in /  0mm
07:34 46.2 °F /  7.9 °C 25.5 °F /  -3.6 °C 30.16in /  1021.2hPa SSW 6.0mph /  9.7km/h 15.0mph /  24.1km/h 44% 0.00in /  0mm
07:39 46.2 °F /  7.9 °C 25.5 °F /  -3.6 °C 30.15in /  1020.9hPa SSW 6.0mph /  9.7km/h 14.0mph /  22.5km/h 44% 0.00in /  0mm
07:44 46.2 °F /  7.9 °C 25.5 °F /  -3.6 °C 30.16in /  1021.2hPa SSW 6.0mph /  9.7km/h 12.0mph /  19.3km/h 44% 0.00in /  0mm
07:49 46.0 °F /  7.8 °C 25.3 °F /  -3.7 °C 30.16in /  1021.2hPa SW 4.0mph /  6.4km/h 11.0mph /  17.7km/h 44% 0.00in /  0mm
07:54 46.0 °F /  7.8 °C 25.8 °F /  -3.4 °C 30.15in /  1020.9hPa South 3.0mph /  4.8km/h 13.0mph /  20.9km/h 45% 0.00in /  0mm
07:59 46.1 °F /  7.8 °C 25.9 °F /  -3.4 °C 30.16in /  1021.2hPa SSW 5.0mph /  8km/h 13.0mph /  20.9km/h 45% 0.00in /  0mm
08:04 46.3 °F /  7.9 °C 26.1 °F /  -3.3 °C 30.15in /  1020.9hPa SSW 5.0mph /  8km/h 12.0mph /  19.3km/h 45% 0.00in /  0mm
08:09 46.4 °F /  8 °C 26.2 °F /  -3.2 °C 30.16in /  1021.2hPa SSW 6.0mph /  9.7km/h 13.0mph /  20.9km/h 45% 0.00in /  0mm
08:14 46.5 °F /  8.1 °C 26.3 °F /  -3.2 °C 30.15in /  1020.9hPa SSW 5.0mph /  8km/h 11.0mph /  17.7km/h 45% 0.00in /  0mm
08:19 46.7 °F /  8.2 °C 27.0 °F /  -2.8 °C 30.15in /  1020.9hPa SW 7.0mph /  11.3km/h 15.0mph /  24.1km/h 46% 0.00in /  0mm
08:24 46.9 °F /  8.3 °C 27.2 °F /  -2.7 °C 30.15in /  1020.9hPa SSW 8.0mph /  12.9km/h 13.0mph /  20.9km/h 46% 0.00in /  0mm
08:29 47.0 °F /  8.3 °C 27.3 °F /  -2.6 °C 30.15in /  1020.9hPa SSW 6.0mph /  9.7km/h 13.0mph /  20.9km/h 46% 0.00in /  0mm
08:34 47.0 °F /  8.3 °C 27.3 °F /  -2.6 °C 30.15in /  1020.9hPa SSW 5.0mph /  8km/h 12.0mph /  19.3km/h 46% 0.00in /  0mm
08:39 47.1 °F /  8.4 °C 27.4 °F /  -2.6 °C 30.15in /  1020.9hPa SSW 6.0mph /  9.7km/h 12.0mph /  19.3km/h 46% 0.00in /  0mm
08:44 47.2 °F /  8.4 °C 28.0 °F /  -2.2 °C 30.15in /  1020.9hPa South 4.0mph /  6.4km/h 16.0mph /  25.7km/h 47% 0.00in /  0mm
08:49 47.3 °F /  8.5 °C 28.1 °F /  -2.2 °C 30.15in /  1020.9hPa South 10.0mph /  16.1km/h 17.0mph /  27.4km/h 47% 0.00in /  0mm
08:54 47.4 °F /  8.6 °C 28.2 °F /  -2.1 °C 30.14in /  1020.5hPa South 3.0mph /  4.8km/h 14.0mph /  22.5km/h 47% 0.00in /  0mm
08:59 47.5 °F /  8.6 °C 28.3 °F /  -2.1 °C 30.14in /  1020.5hPa SSW 8.0mph /  12.9km/h 15.0mph /  24.1km/h 47% 0.00in /  0mm
09:04 47.5 °F /  8.6 °C 28.3 °F /  -2.1 °C 30.14in /  1020.5hPa SSW 8.0mph /  12.9km/h 15.0mph /  24.1km/h 47% 0.00in /  0mm
09:09 47.6 °F /  8.7 °C 28.3 °F /  -2.1 °C 30.14in /  1020.5hPa SSW 8.0mph /  12.9km/h 15.0mph /  24.1km/h 47% 0.00in /  0mm
09:14 47.7 °F /  8.7 °C 28.4 °F /  -2 °C 30.14in /  1020.5hPa SSW 7.0mph /  11.3km/h 16.0mph /  25.7km/h 47% 0.00in /  0mm
09:19 47.8 °F /  8.8 °C 28.5 °F /  -1.9 °C 30.14in /  1020.5hPa South 8.0mph /  12.9km/h 17.0mph /  27.4km/h 47% 0.00in /  0mm
09:24 47.8 °F /  8.8 °C 29.0 °F /  -1.7 °C 30.14in /  1020.5hPa SSW 6.0mph /  9.7km/h 17.0mph /  27.4km/h 48% 0.00in /  0mm
09:29 47.6 °F /  8.7 °C 28.9 °F /  -1.7 °C 30.14in /  1020.5hPa SW 11.0mph /  17.7km/h 17.0mph /  27.4km/h 48% 0.00in /  0mm
09:34 47.7 °F /  8.7 °C 28.9 °F /  -1.7 °C 30.14in /  1020.5hPa SSW 8.0mph /  12.9km/h 19.0mph /  30.6km/h 48% 0.00in /  0mm
09:39 47.7 °F /  8.7 °C 29.5 °F /  -1.4 °C 30.13in /  1020.2hPa SSW 8.0mph /  12.9km/h 19.0mph /  30.6km/h 49% 0.00in /  0mm
09:44 47.8 °F /  8.8 °C 29.5 °F /  -1.4 °C 30.14in /  1020.5hPa SSW 7.0mph /  11.3km/h 16.0mph /  25.7km/h 49% 0.00in /  0mm
09:49 48.0 °F /  8.9 °C 29.7 °F /  -1.3 °C 30.14in /  1020.5hPa South 8.0mph /  12.9km/h 18.0mph /  29km/h 49% 0.00in /  0mm
09:54 48.0 °F /  8.9 °C 29.7 °F /  -1.3 °C 30.14in /  1020.5hPa SSE 8.0mph /  12.9km/h 16.0mph /  25.7km/h 49% 0.00in /  0mm
09:59 47.9 °F /  8.8 °C 30.1 °F /  -1.1 °C 30.14in /  1020.5hPa South 5.0mph /  8km/h 16.0mph /  25.7km/h 50% 0.00in /  0mm
10:04 47.8 °F /  8.8 °C 30.5 °F /  -0.8 °C 30.14in /  1020.5hPa SSW 7.0mph /  11.3km/h 16.0mph /  25.7km/h 51% 0.00in /  0mm
10:09 48.1 °F /  8.9 °C 30.3 °F /  -0.9 °C 30.14in /  1020.5hPa SSW 7.0mph /  11.3km/h 17.0mph /  27.4km/h 50% 0.00in /  0mm
10:14 48.1 °F /  8.9 °C 30.3 °F /  -0.9 °C 30.14in /  1020.5hPa SW 8.0mph /  12.9km/h 13.0mph /  20.9km/h 50% 0.00in /  0mm
10:19 48.1 °F /  8.9 °C 30.8 °F /  -0.7 °C 30.14in /  1020.5hPa SSW 11.0mph /  17.7km/h 15.0mph /  24.1km/h 51% 0.00in /  0mm
10:24 48.0 °F /  8.9 °C 31.7 °F /  -0.2 °C 30.14in /  1020.5hPa SSW 8.0mph /  12.9km/h 16.0mph /  25.7km/h 53% 0.00in /  0mm
10:29 48.0 °F /  8.9 °C 32.1 °F /  0.1 °C 30.14in /  1020.5hPa WSW 4.0mph /  6.4km/h 14.0mph /  22.5km/h 54% 0.00in /  0mm
10:34 48.0 °F /  8.9 °C 31.7 °F /  -0.2 °C 30.14in /  1020.5hPa SSW 3.0mph /  4.8km/h 17.0mph /  27.4km/h 53% 0.00in /  0mm
10:39 48.0 °F /  8.9 °C 31.7 °F /  -0.2 °C 30.14in /  1020.5hPa SSW 6.0mph /  9.7km/h 17.0mph /  27.4km/h 53% 0.00in /  0mm
10:44 48.0 °F /  8.9 °C 32.1 °F /  0.1 °C 30.13in /  1020.2hPa SSW 7.0mph /  11.3km/h 14.0mph /  22.5km/h 54% 0.00in /  0mm
10:49 48.0 °F /  8.9 °C 32.1 °F /  0.1 °C 30.13in /  1020.2hPa South 5.0mph /  8km/h 14.0mph /  22.5km/h 54% 0.00in /  0mm
10:54 48.1 °F /  8.9 °C 32.7 °F /  0.4 °C 30.13in /  1020.2hPa SW 2.0mph /  3.2km/h 12.0mph /  19.3km/h 55% 0.00in /  0mm
10:59 48.1 °F /  8.9 °C 32.7 °F /  0.4 °C 30.13in /  1020.2hPa SSW 1.0mph /  1.6km/h 10.0mph /  16.1km/h 55% 0.00in /  0mm
11:04 48.1 °F /  8.9 °C 32.7 °F /  0.4 °C 30.13in /  1020.2hPa SSW 4.0mph /  6.4km/h 14.0mph /  22.5km/h 55% 0.00in /  0mm
11:09 48.0 °F /  8.9 °C 33.0 °F /  0.6 °C 30.13in /  1020.2hPa SSW 6.0mph /  9.7km/h 14.0mph /  22.5km/h 56% 0.00in /  0mm
11:14 48.1 °F /  8.9 °C 33.1 °F /  0.6 °C 30.13in /  1020.2hPa SSW 7.0mph /  11.3km/h 14.0mph /  22.5km/h 56% 0.00in /  0mm
11:19 48.1 °F /  8.9 °C 33.6 °F /  0.9 °C 30.13in /  1020.2hPa SW 6.0mph /  9.7km/h 14.0mph /  22.5km/h 57% 0.00in /  0mm
11:24 48.3 °F /  9.1 °C 33.3 °F /  0.7 °C 30.12in /  1019.9hPa SW 6.0mph /  9.7km/h 15.0mph /  24.1km/h 56% 0.00in /  0mm
11:29 48.5 °F /  9.2 °C 33.5 °F /  0.8 °C 30.12in /  1019.9hPa SW 7.0mph /  11.3km/h 15.0mph /  24.1km/h 56% 0.00in /  0mm
11:34 48.5 °F /  9.2 °C 33.5 °F /  0.8 °C 30.12in /  1019.9hPa SW 8.0mph /  12.9km/h 16.0mph /  25.7km/h 56% 0.00in /  0mm
11:40 48.4 °F /  9.1 °C 33.9 °F /  1.1 °C 30.11in /  1019.5hPa South 10.0mph /  16.1km/h 17.0mph /  27.4km/h 57% 0.00in /  0mm
11:44 48.5 °F /  9.2 °C 33.9 °F /  1.1 °C 30.11in /  1019.5hPa SSW 7.0mph /  11.3km/h 17.0mph /  27.4km/h 57% 0.00in /  0mm
11:49 48.5 °F /  9.2 °C 33.9 °F /  1.1 °C 30.11in /  1019.5hPa SSW 7.0mph /  11.3km/h 14.0mph /  22.5km/h 57% 0.00in /  0mm
11:54 48.5 °F /  9.2 °C 33.9 °F /  1.1 °C 30.11in /  1019.5hPa SW 10.0mph /  16.1km/h 18.0mph /  29km/h 57% 0.00in /  0mm
11:59 48.5 °F /  9.2 °C 33.9 °F /  1.1 °C 30.11in /  1019.5hPa SW 5.0mph /  8km/h 19.0mph /  30.6km/h 57% 0.00in /  0mm
12:04 48.5 °F /  9.2 °C 34.4 °F /  1.3 °C 30.10in /  1019.2hPa SW 2.0mph /  3.2km/h 16.0mph /  25.7km/h 58% 0.00in /  0mm
12:09 48.4 °F /  9.1 °C 34.3 °F /  1.3 °C 30.11in /  1019.5hPa South 5.0mph /  8km/h 16.0mph /  25.7km/h 58% 0.00in /  0mm
12:14 48.3 °F /  9.1 °C 34.6 °F /  1.4 °C 30.10in /  1019.2hPa SSW 5.0mph /  8km/h 21.0mph /  33.8km/h 59% 0.00in /  0mm
12:19 48.3 °F /  9.1 °C 35.0 °F /  1.7 °C 30.10in /  1019.2hPa SSW 7.0mph /  11.3km/h 21.0mph /  33.8km/h 60% 0.00in /  0mm
12:24 48.2 °F /  9 °C 35.0 °F /  1.7 °C 30.10in /  1019.2hPa SSW 7.0mph /  11.3km/h 17.0mph /  27.4km/h 60% 0.00in /  0mm
12:29 48.2 °F /  9 °C 35.4 °F /  1.9 °C 30.10in /  1019.2hPa SSW 7.0mph /  11.3km/h 18.0mph /  29km/h 61% 0.00in /  0mm
12:34 48.1 °F /  8.9 °C 35.3 °F /  1.8 °C 30.10in /  1019.2hPa SSW 8.0mph /  12.9km/h 18.0mph /  29km/h 61% 0.00in /  0mm
12:39 48.0 °F /  8.9 °C 35.6 °F /  2 °C 30.10in /  1019.2hPa SW 14.0mph /  22.5km/h 14.0mph /  22.5km/h 62% 0.00in /  0mm
12:44 47.9 °F /  8.8 °C 35.5 °F /  1.9 °C 30.09in /  1018.8hPa WSW 9.0mph /  14.5km/h 14.0mph /  22.5km/h 62% 0.00in /  0mm
12:49 47.9 °F /  8.8 °C 35.5 °F /  1.9 °C 30.09in /  1018.8hPa SW 8.0mph /  12.9km/h 18.0mph /  29km/h 62% 0.00in /  0mm
12:54 48.0 °F /  8.9 °C 35.6 °F /  2 °C 30.08in /  1018.5hPa SSW 8.0mph /  12.9km/h 18.0mph /  29km/h 62% 0.00in /  0mm
12:59 48.1 °F /  8.9 °C 35.7 °F /  2.1 °C 30.08in /  1018.5hPa SW 6.0mph /  9.7km/h 16.0mph /  25.7km/h 62% 0.00in /  0mm
13:04 48.1 °F /  8.9 °C 35.7 °F /  2.1 °C 30.08in /  1018.5hPa SSW 9.0mph /  14.5km/h 15.0mph /  24.1km/h 62% 0.00in /  0mm
13:09 48.0 °F /  8.9 °C 36.0 °F /  2.2 °C 30.08in /  1018.5hPa SSW 14.0mph /  22.5km/h 14.0mph /  22.5km/h 63% 0.00in /  0mm
13:14 48.0 °F /  8.9 °C 36.0 °F /  2.2 °C 30.08in /  1018.5hPa West 4.0mph /  6.4km/h 16.0mph /  25.7km/h 63% 0.00in /  0mm
13:19 47.9 °F /  8.8 °C 35.9 °F /  2.2 °C 30.07in /  1018.2hPa SSW 3.0mph /  4.8km/h 17.0mph /  27.4km/h 63% 0.00in /  0mm
13:24 47.9 °F /  8.8 °C 36.3 °F /  2.4 °C 30.07in /  1018.2hPa SSW 7.0mph /  11.3km/h 18.0mph /  29km/h 64% 0.00in /  0mm
13:29 48.0 °F /  8.9 °C 36.4 °F /  2.4 °C 30.07in /  1018.2hPa SW 7.0mph /  11.3km/h 18.0mph /  29km/h 64% 0.00in /  0mm
13:34 47.9 °F /  8.8 °C 36.3 °F /  2.4 °C 30.07in /  1018.2hPa SW 7.0mph /  11.3km/h 16.0mph /  25.7km/h 64% 0.00in /  0mm
13:39 48.0 °F /  8.9 °C 36.8 °F /  2.7 °C 30.07in /  1018.2hPa SSW 8.0mph /  12.9km/h 18.0mph /  29km/h 65% 0.00in /  0mm
13:44 47.9 °F /  8.8 °C 37.1 °F /  2.8 °C 30.07in /  1018.2hPa SSW 9.0mph /  14.5km/h 20.0mph /  32.2km/h 66% 0.00in /  0mm
13:49 47.7 °F /  8.7 °C 37.7 °F /  3.2 °C 30.07in /  1018.2hPa SSW 9.0mph /  14.5km/h 20.0mph /  32.2km/h 68% 0.00in /  0mm
13:54 47.4 °F /  8.6 °C 38.1 °F /  3.4 °C 30.07in /  1018.2hPa South 7.0mph /  11.3km/h 18.0mph /  29km/h 70% 0.00in /  0mm
13:59 46.9 °F /  8.3 °C 38.3 °F /  3.5 °C 30.07in /  1018.2hPa SW 16.0mph /  25.7km/h 21.0mph /  33.8km/h 72% 0.00in /  0mm
14:04 46.4 °F /  8 °C 38.2 °F /  3.4 °C 30.07in /  1018.2hPa SW 5.0mph /  8km/h 19.0mph /  30.6km/h 73% 0.00in /  0mm
14:09 45.9 °F /  7.7 °C 38.4 °F /  3.6 °C 30.06in /  1017.8hPa South 6.0mph /  9.7km/h 20.0mph /  32.2km/h 75% 0.00in /  0mm
14:14 45.7 °F /  7.6 °C 38.6 °F /  3.7 °C 30.07in /  1018.2hPa South 10.0mph /  16.1km/h 20.0mph /  32.2km/h 76% 0.00in /  0mm
14:19 45.4 °F /  7.4 °C 38.6 °F /  3.7 °C 30.07in /  1018.2hPa SSW 12.0mph /  19.3km/h 17.0mph /  27.4km/h 77% 0.00in /  0mm
14:24 45.2 °F /  7.3 °C 38.4 °F /  3.6 °C 30.07in /  1018.2hPa SSW 5.0mph /  8km/h 21.0mph /  33.8km/h 77% 0.00in /  0mm
14:29 45.1 °F /  7.3 °C 38.6 °F /  3.7 °C 30.07in /  1018.2hPa SSW 10.0mph /  16.1km/h 18.0mph /  29km/h 78% 0.00in /  0mm
14:34 45.0 °F /  7.2 °C 38.6 °F /  3.7 °C 30.06in /  1017.8hPa SSW 8.0mph /  12.9km/h 19.0mph /  30.6km/h 78% 0.00in /  0mm
14:39 44.9 °F /  7.2 °C 38.8 °F /  3.8 °C 30.06in /  1017.8hPa SSW 9.0mph /  14.5km/h 22.0mph /  35.4km/h 79% 0.00in /  0mm
14:44 44.8 °F /  7.1 °C 38.7 °F /  3.7 °C 30.06in /  1017.8hPa SSW 9.0mph /  14.5km/h 22.0mph /  35.4km/h 79% 0.00in /  0mm
14:49 44.7 °F /  7.1 °C 38.6 °F /  3.7 °C 30.06in /  1017.8hPa SSW 8.0mph /  12.9km/h 17.0mph /  27.4km/h 79% 0.01in /  0.25mm
14:54 44.6 °F /  7 °C 38.8 °F /  3.8 °C 30.07in /  1018.2hPa SSW 6.0mph /  9.7km/h 17.0mph /  27.4km/h 80% 0.01in /  0.25mm
14:59 44.6 °F /  7 °C 38.8 °F /  3.8 °C 30.07in /  1018.2hPa SW 11.0mph /  17.7km/h 14.0mph /  22.5km/h 80% 0.01in /  0.25mm
15:04 44.5 °F /  6.9 °C 38.7 °F /  3.7 °C 30.07in /  1018.2hPa South 11.0mph /  17.7km/h 13.0mph /  20.9km/h 80% 0.01in /  0.25mm
15:09 44.5 °F /  6.9 °C 38.7 °F /  3.7 °C 30.06in /  1017.8hPa SSW 7.0mph /  11.3km/h 16.0mph /  25.7km/h 80% 0.01in /  0.25mm
15:14 44.4 °F /  6.9 °C 38.9 °F /  3.8 °C 30.06in /  1017.8hPa SSW 6.0mph /  9.7km/h 16.0mph /  25.7km/h 81% 0.01in /  0.25mm
15:19 44.3 °F /  6.8 °C 38.8 °F /  3.8 °C 30.06in /  1017.8hPa WSW 10.0mph /  16.1km/h 15.0mph /  24.1km/h 81% 0.02in /  0.51mm
15:25 44.3 °F /  6.8 °C 38.8 °F /  3.8 °C 30.06in /  1017.8hPa SW 5.0mph /  8km/h 13.0mph /  20.9km/h 81% 0.02in /  0.51mm
15:30 44.2 °F /  6.8 °C 39.1 °F /  3.9 °C 30.06in /  1017.8hPa SSW 6.0mph /  9.7km/h 14.0mph /  22.5km/h 82% 0.03in /  0.76mm
15:39 44.3 °F /  6.8 °C 39.2 °F /  4 °C 30.06in /  1017.8hPa SW 8.0mph /  12.9km/h 17.0mph /  27.4km/h 82% 0.03in /  0.76mm
15:44 44.3 °F /  6.8 °C 39.5 °F /  4.2 °C 30.06in /  1017.8hPa SSW 7.0mph /  11.3km/h 17.0mph /  27.4km/h 83% 0.03in /  0.76mm
15:50 44.2 °F /  6.8 °C 39.4 °F /  4.1 °C 30.06in /  1017.8hPa SSW 4.0mph /  6.4km/h 12.0mph /  19.3km/h 83% 0.03in /  0.76mm
16:00 44.2 °F /  6.8 °C 39.4 °F /  4.1 °C 30.06in /  1017.8hPa SSW 5.0mph /  8km/h 14.0mph /  22.5km/h 83% 0.04in /  1.02mm
16:05 44.0 °F /  6.7 °C 39.5 °F /  4.2 °C 30.07in /  1018.2hPa South 1.0mph /  1.6km/h 7.0mph /  11.3km/h 84% 0.04in /  1.02mm
16:14 43.9 °F /  6.6 °C 39.4 °F /  4.1 °C 30.07in /  1018.2hPa SSW 6.0mph /  9.7km/h 14.0mph /  22.5km/h 84% 0.06in /  1.52mm
16:19 43.8 °F /  6.6 °C 39.6 °F /  4.2 °C 30.07in /  1018.2hPa SSW 6.0mph /  9.7km/h 12.0mph /  19.3km/h 85% 0.05in /  1.27mm
16:24 43.8 °F /  6.6 °C 39.6 °F /  4.2 °C 30.07in /  1018.2hPa SSW 6.0mph /  9.7km/h 13.0mph /  20.9km/h 85% 0.06in /  1.52mm
16:29 43.7 °F /  6.5 °C 39.5 °F /  4.2 °C 30.07in /  1018.2hPa WSW 3.0mph /  4.8km/h 11.0mph /  17.7km/h 85% 0.06in /  1.52mm
16:34 43.7 °F /  6.5 °C 39.8 °F /  4.3 °C 30.07in /  1018.2hPa SSW 8.0mph /  12.9km/h 12.0mph /  19.3km/h 86% 0.06in /  1.52mm
16:39 43.7 °F /  6.5 °C 39.8 °F /  4.3 °C 30.07in /  1018.2hPa SW 10.0mph /  16.1km/h 19.0mph /  30.6km/h 86% 0.07in /  1.78mm
16:44 43.7 °F /  6.5 °C 39.8 °F /  4.3 °C 30.07in /  1018.2hPa SSW 6.0mph /  9.7km/h 15.0mph /  24.1km/h 86% 0.08in /  2.03mm
16:49 43.7 °F /  6.5 °C 39.8 °F /  4.3 °C 30.07in /  1018.2hPa SSW 7.0mph /  11.3km/h 15.0mph /  24.1km/h 86% 0.07in /  1.78mm
16:54 43.6 °F /  6.4 °C 39.7 °F /  4.3 °C 30.07in /  1018.2hPa SW 6.0mph /  9.7km/h 15.0mph /  24.1km/h 86% 0.08in /  2.03mm
16:59 43.6 °F /  6.4 °C 40.0 °F /  4.4 °C 30.07in /  1018.2hPa SW 5.0mph /  8km/h 12.0mph /  19.3km/h 87% 0.07in /  1.78mm
17:04 43.6 °F /  6.4 °C 40.0 °F /  4.4 °C 30.07in /  1018.2hPa SSW 5.0mph /  8km/h 12.0mph /  19.3km/h 87% 0.08in /  2.03mm
17:09 43.6 °F /  6.4 °C 40.0 °F /  4.4 °C 30.07in /  1018.2hPa SSW 6.0mph /  9.7km/h 12.0mph /  19.3km/h 87% 0.08in /  2.03mm
17:14 43.6 °F /  6.4 °C 40.0 °F /  4.4 °C 30.08in /  1018.5hPa SW 5.0mph /  8km/h 12.0mph /  19.3km/h 87% 0.07in /  1.78mm
17:19 43.6 °F /  6.4 °C 40.0 °F /  4.4 °C 30.08in /  1018.5hPa SSW 2.0mph /  3.2km/h 8.0mph /  12.9km/h 87% 0.08in /  2.03mm
17:24 43.6 °F /  6.4 °C 40.3 °F /  4.6 °C 30.07in /  1018.2hPa South 5.0mph /  8km/h 12.0mph /  19.3km/h 88% 0.08in /  2.03mm
17:29 43.5 °F /  6.4 °C 40.2 °F /  4.6 °C 30.07in /  1018.2hPa SSW 5.0mph /  8km/h 12.0mph /  19.3km/h 88% 0.08in /  2.03mm
17:34 43.6 °F /  6.4 °C 40.3 °F /  4.6 °C 30.08in /  1018.5hPa SW 5.0mph /  8km/h 15.0mph /  24.1km/h 88% 0.09in /  2.29mm
17:39 43.6 °F /  6.4 °C 40.3 °F /  4.6 °C 30.08in /  1018.5hPa SW 4.0mph /  6.4km/h 14.0mph /  22.5km/h 88% 0.08in /  2.03mm
17:44 43.5 °F /  6.4 °C 40.2 °F /  4.6 °C 30.08in /  1018.5hPa SSW 3.0mph /  4.8km/h 12.0mph /  19.3km/h 88% 0.08in /  2.03mm
17:49 43.6 °F /  6.4 °C 40.3 °F /  4.6 °C 30.08in /  1018.5hPa SSW 6.0mph /  9.7km/h 13.0mph /  20.9km/h 88% 0.08in /  2.03mm
17:54 43.6 °F /  6.4 °C 40.3 °F /  4.6 °C 30.08in /  1018.5hPa SW 6.0mph /  9.7km/h 15.0mph /  24.1km/h 88% 0.08in /  2.03mm
17:59 43.8 °F /  6.6 °C 40.5 °F /  4.7 °C 30.08in /  1018.5hPa SSW 6.0mph /  9.7km/h 15.0mph /  24.1km/h 88% 0.08in /  2.03mm
18:04 43.8 °F /  6.6 °C 40.5 °F /  4.7 °C 30.08in /  1018.5hPa SSW 7.0mph /  11.3km/h 15.0mph /  24.1km/h 88% 0.08in /  2.03mm
18:09 43.8 °F /  6.6 °C 40.5 °F /  4.7 °C 30.08in /  1018.5hPa SSW 7.0mph /  11.3km/h 16.0mph /  25.7km/h 88% 0.08in /  2.03mm
18:14 43.9 °F /  6.6 °C 40.6 °F /  4.8 °C 30.09in /  1018.8hPa SW 6.0mph /  9.7km/h 16.0mph /  25.7km/h 88% 0.08in /  2.03mm
18:19 43.9 °F /  6.6 °C 40.9 °F /  4.9 °C 30.09in /  1018.8hPa SW 6.0mph /  9.7km/h 14.0mph /  22.5km/h 89% 0.08in /  2.03mm
18:24 44.0 °F /  6.7 °C 41.0 °F /  5 °C 30.09in /  1018.8hPa SW 7.0mph /  11.3km/h 16.0mph /  25.7km/h 89% 0.07in /  1.78mm
18:29 44.1 °F /  6.7 °C 41.1 °F /  5.1 °C 30.09in /  1018.8hPa SW 11.0mph /  17.7km/h 16.0mph /  25.7km/h 89% 0.06in /  1.52mm
18:34 44.1 °F /  6.7 °C 41.1 °F /  5.1 °C 30.09in /  1018.8hPa WSW 9.0mph /  14.5km/h 16.0mph /  25.7km/h 89% 0.06in /  1.52mm
18:39 44.2 °F /  6.8 °C 41.2 °F /  5.1 °C 30.09in /  1018.8hPa South 12.0mph /  19.3km/h 18.0mph /  29km/h 89% 0.06in /  1.52mm
18:44 44.2 °F /  6.8 °C 41.2 °F /  5.1 °C 30.09in /  1018.8hPa WSW 9.0mph /  14.5km/h 18.0mph /  29km/h 89% 0.05in /  1.27mm
18:49 44.3 °F /  6.8 °C 41.3 °F /  5.2 °C 30.09in /  1018.8hPa SW 2.0mph /  3.2km/h 19.0mph /  30.6km/h 89% 0.05in /  1.27mm
18:54 44.3 °F /  6.8 °C 41.3 °F /  5.2 °C 30.09in /  1018.8hPa SSW 8.0mph /  12.9km/h 18.0mph /  29km/h 89% 0.05in /  1.27mm
18:59 44.3 °F /  6.8 °C 41.3 °F /  5.2 °C 30.09in /  1018.8hPa West 5.0mph /  8km/h 19.0mph /  30.6km/h 89% 0.05in /  1.27mm
19:04 44.3 °F /  6.8 °C 41.3 °F /  5.2 °C 30.09in /  1018.8hPa SW 8.0mph /  12.9km/h 19.0mph /  30.6km/h 89% 0.04in /  1.02mm
19:09 44.4 °F /  6.9 °C 41.4 °F /  5.2 °C 30.09in /  1018.8hPa SSW 9.0mph /  14.5km/h 22.0mph /  35.4km/h 89% 0.03in /  0.76mm
19:14 44.4 °F /  6.9 °C 41.4 °F /  5.2 °C 30.09in /  1018.8hPa SSW 9.0mph /  14.5km/h 22.0mph /  35.4km/h 89% 0.03in /  0.76mm
19:19 44.4 °F /  6.9 °C 41.4 °F /  5.2 °C 30.10in /  1019.2hPa SW 8.0mph /  12.9km/h 22.0mph /  35.4km/h 89% 0.02in /  0.51mm
19:24 44.4 °F /  6.9 °C 41.4 °F /  5.2 °C 30.10in /  1019.2hPa West 11.0mph /  17.7km/h 16.0mph /  25.7km/h 89% 0.02in /  0.51mm
19:29 44.5 °F /  6.9 °C 41.5 °F /  5.3 °C 30.10in /  1019.2hPa SW 6.0mph /  9.7km/h 16.0mph /  25.7km/h 89% 0.02in /  0.51mm
19:34 44.5 °F /  6.9 °C 41.5 °F /  5.3 °C 30.11in /  1019.5hPa WSW 6.0mph /  9.7km/h 16.0mph /  25.7km/h 89% 0.01in /  0.25mm
19:39 44.5 °F /  6.9 °C 41.5 °F /  5.3 °C 30.11in /  1019.5hPa SW 8.0mph /  12.9km/h 16.0mph /  25.7km/h 89% 0.01in /  0.25mm
19:44 44.4 °F /  6.9 °C 41.4 °F /  5.2 °C 30.11in /  1019.5hPa SW 4.0mph /  6.4km/h 16.0mph /  25.7km/h 89% 0.01in /  0.25mm
19:49 44.5 °F /  6.9 °C 41.5 °F /  5.3 °C 30.11in /  1019.5hPa SW 13.0mph /  20.9km/h 18.0mph /  29km/h 89% 0.01in /  0.25mm
19:54 44.6 °F /  7 °C 41.6 °F /  5.3 °C 30.12in /  1019.9hPa SW 8.0mph /  12.9km/h 20.0mph /  32.2km/h 89% 0.00in /  0mm
19:59 44.6 °F /  7 °C 41.6 °F /  5.3 °C 30.12in /  1019.9hPa SW 11.0mph /  17.7km/h 16.0mph /  25.7km/h 89% 0.00in /  0mm
20:04 44.7 °F /  7.1 °C 41.4 °F /  5.2 °C 30.12in /  1019.9hPa SW 4.0mph /  6.4km/h 17.0mph /  27.4km/h 88% 0.00in /  0mm
20:09 44.7 °F /  7.1 °C 41.4 °F /  5.2 °C 30.12in /  1019.9hPa WSW 8.0mph /  12.9km/h 19.0mph /  30.6km/h 88% 0.00in /  0mm
20:14 44.8 °F /  7.1 °C 41.5 °F /  5.3 °C 30.13in /  1020.2hPa WSW 10.0mph /  16.1km/h 21.0mph /  33.8km/h 88% 0.00in /  0mm
20:19 44.8 °F /  7.1 °C 41.5 °F /  5.3 °C 30.13in /  1020.2hPa WSW 11.0mph /  17.7km/h 21.0mph /  33.8km/h 88% 0.00in /  0mm
20:24 44.7 °F /  7.1 °C 41.4 °F /  5.2 °C 30.13in /  1020.2hPa WSW 10.0mph /  16.1km/h 19.0mph /  30.6km/h 88% 0.00in /  0mm
20:29 44.8 °F /  7.1 °C 41.2 °F /  5.1 °C 30.13in /  1020.2hPa WSW 5.0mph /  8km/h 19.0mph /  30.6km/h 87% 0.00in /  0mm
20:34 44.6 °F /  7 °C 41.0 °F /  5 °C 30.14in /  1020.5hPa SW 8.0mph /  12.9km/h 19.0mph /  30.6km/h 87% 0.00in /  0mm
20:39 44.6 °F /  7 °C 41.0 °F /  5 °C 30.13in /  1020.2hPa SW 15.0mph /  24.1km/h 19.0mph /  30.6km/h 87% 0.00in /  0mm
20:44 44.6 °F /  7 °C 41.0 °F /  5 °C 30.13in /  1020.2hPa WSW 10.0mph /  16.1km/h 19.0mph /  30.6km/h 87% 0.00in /  0mm
20:49 44.5 °F /  6.9 °C 40.9 °F /  4.9 °C 30.13in /  1020.2hPa WSW 10.0mph /  16.1km/h 19.0mph /  30.6km/h 87% 0.00in /  0mm
20:54 44.4 °F /  6.9 °C 40.5 °F /  4.7 °C 30.14in /  1020.5hPa WSW 10.0mph /  16.1km/h 19.0mph /  30.6km/h 86% 0.00in /  0mm
20:59 44.3 °F /  6.8 °C 40.4 °F /  4.7 °C 30.13in /  1020.2hPa WSW 12.0mph /  19.3km/h 16.0mph /  25.7km/h 86% 0.00in /  0mm
21:04 44.2 °F /  6.8 °C 40.3 °F /  4.6 °C 30.14in /  1020.5hPa West 6.0mph /  9.7km/h 17.0mph /  27.4km/h 86% 0.00in /  0mm
21:09 44.2 °F /  6.8 °C 40.3 °F /  4.6 °C 30.14in /  1020.5hPa SW 11.0mph /  17.7km/h 18.0mph /  29km/h 86% 0.00in /  0mm
21:14 44.0 °F /  6.7 °C 40.1 °F /  4.5 °C 30.14in /  1020.5hPa SW 9.0mph /  14.5km/h 25.0mph /  40.2km/h 86% 0.00in /  0mm
21:19 43.8 °F /  6.6 °C 39.9 °F /  4.4 °C 30.14in /  1020.5hPa WSW 10.0mph /  16.1km/h 25.0mph /  40.2km/h 86% 0.00in /  0mm
21:24 43.5 °F /  6.4 °C 39.6 °F /  4.2 °C 30.15in /  1020.9hPa WSW 9.0mph /  14.5km/h 17.0mph /  27.4km/h 86% 0.00in /  0mm
21:29 43.1 °F /  6.2 °C 39.2 °F /  4 °C 30.15in /  1020.9hPa WSW 8.0mph /  12.9km/h 17.0mph /  27.4km/h 86% 0.00in /  0mm
21:34 42.8 °F /  6 °C 38.9 °F /  3.8 °C 30.15in /  1020.9hPa WSW 7.0mph /  11.3km/h 16.0mph /  25.7km/h 86% 0.00in /  0mm
21:39 42.4 °F /  5.8 °C 38.5 °F /  3.6 °C 30.15in /  1020.9hPa SW 7.0mph /  11.3km/h 16.0mph /  25.7km/h 86% 0.00in /  0mm
21:44 41.8 °F /  5.4 °C 37.9 °F /  3.3 °C 30.16in /  1021.2hPa West 13.0mph /  20.9km/h 16.0mph /  25.7km/h 86% 0.00in /  0mm
21:49 41.4 °F /  5.2 °C 37.5 °F /  3.1 °C 30.16in /  1021.2hPa SW 8.0mph /  12.9km/h 15.0mph /  24.1km/h 86% 0.00in /  0mm
21:54 41.3 °F /  5.2 °C 37.7 °F /  3.2 °C 30.16in /  1021.2hPa West 8.0mph /  12.9km/h 17.0mph /  27.4km/h 87% 0.00in /  0mm
21:59 41.4 °F /  5.2 °C 38.1 °F /  3.4 °C 30.16in /  1021.2hPa WSW 9.0mph /  14.5km/h 17.0mph /  27.4km/h 88% 0.00in /  0mm
22:04 41.2 °F /  5.1 °C 37.9 °F /  3.3 °C 30.17in /  1021.6hPa WSW 9.0mph /  14.5km/h 16.0mph /  25.7km/h 88% 0.00in /  0mm
22:09 41.0 °F /  5 °C 37.7 °F /  3.2 °C 30.16in /  1021.2hPa WSW 8.0mph /  12.9km/h 15.0mph /  24.1km/h 88% 0.00in /  0mm
22:14 40.8 °F /  4.9 °C 37.5 °F /  3.1 °C 30.16in /  1021.2hPa WSW 7.0mph /  11.3km/h 11.0mph /  17.7km/h 88% 0.00in /  0mm
22:19 40.6 °F /  4.8 °C 37.3 °F /  2.9 °C 30.16in /  1021.2hPa West 8.0mph /  12.9km/h 12.0mph /  19.3km/h 88% 0.00in /  0mm
22:24 40.4 °F /  4.7 °C 37.1 °F /  2.8 °C 30.17in /  1021.6hPa West 8.0mph /  12.9km/h 14.0mph /  22.5km/h 88% 0.00in /  0mm
22:29 40.1 °F /  4.5 °C 37.1 °F /  2.8 °C 30.17in /  1021.6hPa WSW 7.0mph /  11.3km/h 14.0mph /  22.5km/h 89% 0.00in /  0mm
22:34 39.9 °F /  4.4 °C 36.9 °F /  2.7 °C 30.17in /  1021.6hPa WSW 7.0mph /  11.3km/h 14.0mph /  22.5km/h 89% 0.00in /  0mm
22:39 39.8 °F /  4.3 °C 36.8 °F /  2.7 °C 30.17in /  1021.6hPa SW 5.0mph /  8km/h 10.0mph /  16.1km/h 89% 0.00in /  0mm
22:44 39.6 °F /  4.2 °C 36.6 °F /  2.6 °C 30.16in /  1021.2hPa SW 6.0mph /  9.7km/h 13.0mph /  20.9km/h 89% 0.00in /  0mm
22:49 39.5 °F /  4.2 °C 36.5 °F /  2.5 °C 30.17in /  1021.6hPa WSW 6.0mph /  9.7km/h 12.0mph /  19.3km/h 89% 0.00in /  0mm
22:54 39.3 °F /  4.1 °C 36.3 °F /  2.4 °C 30.16in /  1021.2hPa WSW 3.0mph /  4.8km/h 11.0mph /  17.7km/h 89% 0.00in /  0mm
22:59 39.0 °F /  3.9 °C 36.0 °F /  2.2 °C 30.17in /  1021.6hPa SW 6.0mph /  9.7km/h 11.0mph /  17.7km/h 89% 0.00in /  0mm
23:04 38.9 °F /  3.8 °C 36.2 °F /  2.3 °C 30.17in /  1021.6hPa SW 5.0mph /  8km/h 11.0mph /  17.7km/h 90% 0.00in /  0mm
23:09 38.7 °F /  3.7 °C 36.0 °F /  2.2 °C 30.18in /  1021.9hPa SW 5.0mph /  8km/h 11.0mph /  17.7km/h 90% 0.00in /  0mm
23:14 38.4 °F /  3.6 °C 35.7 °F /  2.1 °C 30.18in /  1021.9hPa WSW 6.0mph /  9.7km/h 15.0mph /  24.1km/h 90% 0.00in /  0mm
23:19 38.2 °F /  3.4 °C 35.5 °F /  1.9 °C 30.18in /  1021.9hPa SW 6.0mph /  9.7km/h 15.0mph /  24.1km/h 90% 0.00in /  0mm
23:24 38.0 °F /  3.3 °C 35.3 °F /  1.8 °C 30.18in /  1021.9hPa SW 5.0mph /  8km/h 11.0mph /  17.7km/h 90% 0.00in /  0mm
23:29 37.8 °F /  3.2 °C 35.1 °F /  1.7 °C 30.18in /  1021.9hPa SW 5.0mph /  8km/h 11.0mph /  17.7km/h 90% 0.00in /  0mm
23:34 37.6 °F /  3.1 °C 34.9 °F /  1.6 °C 30.19in /  1022.2hPa South 7.0mph /  11.3km/h 10.0mph /  16.1km/h 90% 0.00in /  0mm
23:39 37.4 °F /  3 °C 34.7 °F /  1.5 °C 30.19in /  1022.2hPa WSW 8.0mph /  12.9km/h 9.0mph /  14.5km/h 90% 0.00in /  0mm
23:44 37.1 °F /  2.8 °C 34.4 °F /  1.3 °C 30.19in /  1022.2hPa West 4.0mph /  6.4km/h 11.0mph /  17.7km/h 90% 0.00in /  0mm
23:49 36.8 °F /  2.7 °C 34.1 °F /  1.2 °C 30.19in /  1022.2hPa SW 5.0mph /  8km/h 10.0mph /  16.1km/h 90% 0.00in /  0mm
23:54 36.6 °F /  2.6 °C 33.9 °F /  1.1 °C 30.19in /  1022.2hPa WSW 5.0mph /  8km/h 9.0mph /  14.5km/h 90% 0.00in /  0mm
23:59 36.4 °F /  2.4 °C 33.7 °F /  0.9 °C 30.19in /  1022.2hPa SW 8.0mph /  12.9km/h 11.0mph /  17.7km/h 90% 0.00in /  0mm
Buffalo, New York, USA
Compliments of Weather Underground - 2.5 mb